createdAt,value
2016-09-29T00:00:07.212Z,13.95
2016-09-29T00:01:07.769Z,14.00
2016-09-29T00:02:07.243Z,14.00
2016-09-29T00:03:07.818Z,14.03
2016-09-29T00:04:07.362Z,14.07
2016-09-29T00:05:07.968Z,14.14
2016-09-29T00:06:07.522Z,14.18
2016-09-29T00:07:07.994Z,14.09
2016-09-29T00:08:07.524Z,14.03
2016-09-29T00:09:08.094Z,14.02
2016-09-29T00:10:07.699Z,13.99
2016-09-29T00:11:07.262Z,14.07
2016-09-29T00:12:07.761Z,14.02
2016-09-29T00:13:07.410Z,13.92
2016-09-29T00:14:08.073Z,14.01
2016-09-29T00:15:07.698Z,14.14
2016-09-29T00:16:07.272Z,14.21
2016-09-29T00:17:07.951Z,14.21
2016-09-29T00:18:07.502Z,14.16
2016-09-29T00:19:08.159Z,14.13
2016-09-29T00:20:07.754Z,14.16
2016-09-29T00:21:07.302Z,14.24
2016-09-29T00:22:07.794Z,14.28
2016-09-29T00:23:07.269Z,14.32
2016-09-29T00:24:07.732Z,14.33
2016-09-29T00:25:07.276Z,14.33
2016-09-29T00:26:07.744Z,14.36
2016-09-29T00:27:07.227Z,14.35
2016-09-29T00:28:07.797Z,14.42
2016-09-29T00:29:07.380Z,14.35
2016-09-29T00:30:07.989Z,14.32
2016-09-29T00:31:07.555Z,14.21
2016-09-29T00:32:08.133Z,14.20
2016-09-29T00:33:07.715Z,14.28
2016-09-29T00:34:07.280Z,14.29
2016-09-29T00:35:07.897Z,14.20
2016-09-29T00:36:07.400Z,14.25
2016-09-29T00:37:07.523Z,14.28
2016-09-29T00:38:08.082Z,14.31
2016-09-29T00:39:07.580Z,14.34
2016-09-29T00:40:08.223Z,14.35
2016-09-29T00:41:07.295Z,14.34
2016-09-29T00:42:07.844Z,14.31
2016-09-29T00:43:07.336Z,14.28
2016-09-29T00:44:07.860Z,14.39
2016-09-29T00:45:07.386Z,14.31
2016-09-29T00:46:07.940Z,14.31
2016-09-29T00:47:07.501Z,14.26
2016-09-29T00:48:08.031Z,14.34
2016-09-29T00:49:07.515Z,14.29
2016-09-29T00:50:08.080Z,14.30
2016-09-29T00:51:07.633Z,14.31
2016-09-29T00:52:07.063Z,14.25
2016-09-29T00:53:07.684Z,14.24
2016-09-29T00:54:07.232Z,14.27
2016-09-29T00:55:07.662Z,14.35
2016-09-29T00:56:07.230Z,14.38
2016-09-29T00:57:07.764Z,14.34
2016-09-29T00:58:08.002Z,14.27
2016-09-29T00:59:07.487Z,14.30
2016-09-29T01:00:08.047Z,14.27
2016-09-29T01:01:07.612Z,14.31
2016-09-29T01:02:07.074Z,14.32
2016-09-29T01:03:08.105Z,14.28
2016-09-29T01:04:07.684Z,14.29
2016-09-29T01:05:07.959Z,14.29
2016-09-29T01:06:07.263Z,14.30
2016-09-29T01:07:08.079Z,14.25
2016-09-29T01:08:07.536Z,14.20
2016-09-29T01:09:08.025Z,14.15
2016-09-29T01:10:07.855Z,14.21
2016-09-29T01:11:07.108Z,14.19
2016-09-29T01:12:07.629Z,14.19
2016-09-29T01:13:07.123Z,14.09
2016-09-29T01:14:07.812Z,14.11
2016-09-29T01:15:08.010Z,14.13
2016-09-29T01:16:07.566Z,14.16
2016-09-29T01:17:08.276Z,14.19
2016-09-29T01:18:07.324Z,14.13
2016-09-29T01:19:07.841Z,14.04
2016-09-29T01:20:07.154Z,14.02
2016-09-29T01:21:07.733Z,14.01
2016-09-29T01:22:07.883Z,14.06
2016-09-29T01:23:07.419Z,14.08
2016-09-29T01:24:07.721Z,14.09
2016-09-29T01:25:07.507Z,14.16
2016-09-29T01:26:08.097Z,14.14
2016-09-29T01:27:07.707Z,14.16
2016-09-29T01:28:07.328Z,14.14
2016-09-29T01:29:07.249Z,14.11
2016-09-29T01:30:07.847Z,14.09
2016-09-29T01:31:07.670Z,13.99
2016-09-29T01:32:07.319Z,13.99
2016-09-29T01:33:07.842Z,13.94
2016-09-29T01:34:07.602Z,13.94
2016-09-29T01:35:07.052Z,13.95
2016-09-29T01:36:07.604Z,13.94
2016-09-29T01:37:07.095Z,13.91
2016-09-29T01:38:07.653Z,14.02
2016-09-29T01:39:07.166Z,14.05
2016-09-29T01:40:07.727Z,14.08
2016-09-29T01:41:07.224Z,14.07
2016-09-29T01:42:07.783Z,14.09
2016-09-29T01:43:07.386Z,14.13
2016-09-29T01:44:07.922Z,14.12
2016-09-29T01:45:07.447Z,14.12
2016-09-29T01:46:07.624Z,14.06
2016-09-29T01:47:07.162Z,14.05
2016-09-29T01:48:07.649Z,13.94
2016-09-29T01:49:07.260Z,14.04
2016-09-29T01:50:07.820Z,14.02
2016-09-29T01:51:07.314Z,14.00
2016-09-29T01:52:07.879Z,14.05
2016-09-29T01:53:07.346Z,14.04
2016-09-29T01:54:07.887Z,14.00
2016-09-29T01:55:07.385Z,13.85
2016-09-29T01:56:07.290Z,13.89
2016-09-29T01:57:08.017Z,13.91
2016-09-29T01:58:07.602Z,13.98
2016-09-29T01:59:07.136Z,13.98
2016-09-29T02:00:07.697Z,13.92
2016-09-29T02:01:07.269Z,13.95
2016-09-29T02:02:07.812Z,13.88
2016-09-29T02:03:07.239Z,13.86
2016-09-29T02:04:07.721Z,13.88
2016-09-29T02:05:07.442Z,13.86
2016-09-29T02:06:07.892Z,13.79
2016-09-29T02:07:07.805Z,13.82
2016-09-29T02:08:07.423Z,13.76
2016-09-29T02:09:07.945Z,13.71
2016-09-29T02:10:07.577Z,13.71
2016-09-29T02:11:08.131Z,13.71
2016-09-29T02:12:07.652Z,13.64
2016-09-29T02:13:07.233Z,13.58
2016-09-29T02:14:07.787Z,13.51
2016-09-29T02:15:07.397Z,13.52
2016-09-29T02:16:07.981Z,13.51
2016-09-29T02:17:08.035Z,13.51
2016-09-29T02:18:07.747Z,13.50
2016-09-29T02:19:07.873Z,13.45
2016-09-29T02:20:07.676Z,13.47
2016-09-29T02:21:07.299Z,13.45
2016-09-29T02:22:07.924Z,13.42
2016-09-29T02:23:07.536Z,13.41
2016-09-29T02:24:08.031Z,13.39
2016-09-29T02:25:07.563Z,13.38
2016-09-29T02:26:08.137Z,13.38
2016-09-29T02:27:07.688Z,13.37
2016-09-29T02:28:07.203Z,13.37
2016-09-29T02:29:07.841Z,13.40
2016-09-29T02:30:07.321Z,13.40
2016-09-29T02:31:07.911Z,13.35
2016-09-29T02:32:07.507Z,13.33
2016-09-29T02:33:08.028Z,13.36
2016-09-29T02:34:07.492Z,13.34
2016-09-29T02:35:08.247Z,13.35
2016-09-29T02:36:07.881Z,13.32
2016-09-29T02:37:07.410Z,13.30
2016-09-29T02:38:07.978Z,13.25
2016-09-29T02:39:07.474Z,13.21
2016-09-29T02:40:08.065Z,13.17
2016-09-29T02:41:07.687Z,13.15
2016-09-29T02:42:07.360Z,13.17
2016-09-29T02:43:07.862Z,13.15
2016-09-29T02:44:07.403Z,13.15
2016-09-29T02:45:07.998Z,13.15
2016-09-29T02:46:07.556Z,13.13
2016-09-29T02:47:08.140Z,13.05
2016-09-29T02:48:07.653Z,13.03
2016-09-29T02:49:07.191Z,13.13
2016-09-29T02:50:07.662Z,13.12
2016-09-29T02:51:07.228Z,13.09
2016-09-29T02:52:07.327Z,13.00
2016-09-29T02:53:07.817Z,13.04
2016-09-29T02:54:07.681Z,13.04
2016-09-29T02:55:07.263Z,13.17
2016-09-29T02:56:07.753Z,13.23
2016-09-29T02:57:07.261Z,13.19
2016-09-29T02:58:07.807Z,13.19
2016-09-29T02:59:07.349Z,13.16
2016-09-29T03:00:07.845Z,13.10
2016-09-29T03:01:07.374Z,13.07
2016-09-29T03:02:07.905Z,13.10
2016-09-29T03:03:07.518Z,13.12
2016-09-29T03:04:07.989Z,13.14
2016-09-29T03:05:07.721Z,13.14
2016-09-29T03:06:07.161Z,13.12
2016-09-29T03:07:07.743Z,13.06
2016-09-29T03:08:07.341Z,13.06
2016-09-29T03:09:08.019Z,13.03
2016-09-29T03:10:07.636Z,13.06
2016-09-29T03:11:07.161Z,13.18
2016-09-29T03:12:07.713Z,13.16
2016-09-29T03:13:07.241Z,13.11
2016-09-29T03:14:07.743Z,13.07
2016-09-29T03:15:07.222Z,13.02
2016-09-29T03:16:07.708Z,13.02
2016-09-29T03:17:07.350Z,12.97
2016-09-29T03:18:07.897Z,13.00
2016-09-29T03:19:07.432Z,13.04
2016-09-29T03:20:07.910Z,13.00
2016-09-29T03:21:07.457Z,12.99
2016-09-29T03:22:07.997Z,12.99
2016-09-29T03:23:07.528Z,13.02
2016-09-29T03:24:07.989Z,13.05
2016-09-29T03:25:07.892Z,13.15
2016-09-29T03:26:07.387Z,13.15
2016-09-29T03:27:08.029Z,13.19
2016-09-29T03:28:07.637Z,13.25
2016-09-29T03:29:07.051Z,13.29
2016-09-29T03:30:07.407Z,13.22
2016-09-29T03:31:07.903Z,13.22
2016-09-29T03:32:07.501Z,13.32
2016-09-29T03:33:08.045Z,13.38
2016-09-29T03:34:07.637Z,13.27
2016-09-29T03:35:07.179Z,13.26
2016-09-29T03:36:07.731Z,13.21
2016-09-29T03:37:07.379Z,13.34
2016-09-29T03:38:08.040Z,13.38
2016-09-29T03:39:07.556Z,13.37
2016-09-29T03:40:08.092Z,13.32
2016-09-29T03:41:07.602Z,13.22
2016-09-29T03:42:07.201Z,13.24
2016-09-29T03:43:07.863Z,13.23
2016-09-29T03:44:07.381Z,13.18
2016-09-29T03:45:07.877Z,13.09
2016-09-29T03:46:07.351Z,13.11
2016-09-29T03:47:07.865Z,13.13
2016-09-29T03:48:07.376Z,13.08
2016-09-29T03:49:07.949Z,13.08
2016-09-29T03:50:07.515Z,12.97
2016-09-29T03:51:08.077Z,13.04
2016-09-29T03:52:07.561Z,13.07
2016-09-29T03:53:08.149Z,13.07
2016-09-29T03:54:07.637Z,13.08
2016-09-29T03:55:07.095Z,13.04
2016-09-29T03:56:07.731Z,13.02
2016-09-29T03:57:07.559Z,13.04
2016-09-29T03:58:08.162Z,13.02
2016-09-29T03:59:07.686Z,12.95
2016-09-29T04:00:07.267Z,12.93
2016-09-29T04:01:07.875Z,12.92
2016-09-29T04:02:07.377Z,12.95
2016-09-29T04:03:07.938Z,12.88
2016-09-29T04:04:07.477Z,12.85
2016-09-29T04:05:07.971Z,12.88
2016-09-29T04:06:07.475Z,12.93
2016-09-29T04:07:08.051Z,12.92
2016-09-29T04:08:07.480Z,12.83
2016-09-29T04:09:08.111Z,12.81
2016-09-29T04:10:07.631Z,12.76
2016-09-29T04:11:07.146Z,12.73
2016-09-29T04:12:07.635Z,12.74
2016-09-29T04:13:07.154Z,12.72
2016-09-29T04:14:07.606Z,12.69
2016-09-29T04:15:07.197Z,12.67
2016-09-29T04:16:07.791Z,12.68
2016-09-29T04:17:07.482Z,12.65
2016-09-29T04:18:08.028Z,12.67
2016-09-29T04:19:07.610Z,12.65
2016-09-29T04:20:07.066Z,12.57
2016-09-29T04:21:07.676Z,12.55
2016-09-29T04:22:07.113Z,12.61
2016-09-29T04:23:07.620Z,12.59
2016-09-29T04:24:07.081Z,12.59
2016-09-29T04:25:10.305Z,12.61
2016-09-29T04:26:08.010Z,12.63
2016-09-29T04:27:07.469Z,12.59
2016-09-29T04:28:08.083Z,12.54
2016-09-29T04:29:07.682Z,12.57
2016-09-29T04:30:07.250Z,12.56
2016-09-29T04:31:07.923Z,12.65
2016-09-29T04:32:07.445Z,12.68
2016-09-29T04:33:07.999Z,12.75
2016-09-29T04:34:07.479Z,12.71
2016-09-29T04:35:08.081Z,12.68
2016-09-29T04:36:07.517Z,12.71
2016-09-29T04:37:08.053Z,12.67
2016-09-29T04:38:07.619Z,12.58
2016-09-29T04:39:07.119Z,12.56
2016-09-29T04:40:07.649Z,12.56
2016-09-29T04:41:07.230Z,12.53
2016-09-29T04:42:07.359Z,12.62
2016-09-29T04:43:08.003Z,12.63
2016-09-29T04:44:07.571Z,12.67
2016-09-29T04:45:08.230Z,12.73
2016-09-29T04:46:07.842Z,12.84
2016-09-29T04:47:07.409Z,12.94
2016-09-29T04:48:07.950Z,12.95
2016-09-29T04:49:07.493Z,12.93
2016-09-29T04:50:08.080Z,12.99
2016-09-29T04:51:07.610Z,13.01
2016-09-29T04:52:07.071Z,13.00
2016-09-29T04:53:07.595Z,13.00
2016-09-29T04:54:07.200Z,12.91
2016-09-29T04:55:07.791Z,12.85
2016-09-29T04:56:07.386Z,12.81
2016-09-29T04:57:07.869Z,12.81
2016-09-29T04:58:07.444Z,12.83
2016-09-29T04:59:08.029Z,12.88
2016-09-29T05:00:07.583Z,12.91
2016-09-29T05:01:08.139Z,12.83
2016-09-29T05:02:07.709Z,12.82
2016-09-29T05:03:07.254Z,12.96
2016-09-29T05:04:07.740Z,13.05
2016-09-29T05:05:07.569Z,13.00
2016-09-29T05:06:08.194Z,12.99
2016-09-29T05:07:07.737Z,13.00
2016-09-29T05:08:07.248Z,12.99
2016-09-29T05:09:07.767Z,13.07
2016-09-29T05:10:07.348Z,13.09
2016-09-29T05:11:07.861Z,13.14
2016-09-29T05:12:07.405Z,13.19
2016-09-29T05:13:08.012Z,13.14
2016-09-29T05:14:07.589Z,13.13
2016-09-29T05:15:07.123Z,13.09
2016-09-29T05:16:07.690Z,13.01
2016-09-29T05:17:07.331Z,13.07
2016-09-29T05:18:07.953Z,13.09
2016-09-29T05:19:07.478Z,13.10
2016-09-29T05:20:08.031Z,12.98
2016-09-29T05:21:07.562Z,12.91
2016-09-29T05:22:08.138Z,12.87
2016-09-29T05:23:07.729Z,12.93
2016-09-29T05:24:07.294Z,12.95
2016-09-29T05:25:07.131Z,12.91
2016-09-29T05:26:07.616Z,12.82
2016-09-29T05:27:07.117Z,12.92
2016-09-29T05:28:07.653Z,12.91
2016-09-29T05:29:07.819Z,12.87
2016-09-29T05:30:07.359Z,12.89
2016-09-29T05:31:07.836Z,12.84
2016-09-29T05:32:07.314Z,12.87
2016-09-29T05:33:07.864Z,12.87
2016-09-29T05:34:08.510Z,12.89
2016-09-29T05:35:08.175Z,12.90
2016-09-29T05:36:09.390Z,12.96
2016-09-29T05:37:07.992Z,12.93
2016-09-29T05:38:07.470Z,12.90
2016-09-29T05:39:08.099Z,12.94
2016-09-29T05:40:07.752Z,12.90
2016-09-29T05:41:09.762Z,12.94
2016-09-29T05:42:08.829Z,12.93
2016-09-29T05:43:09.298Z,13.00
2016-09-29T05:44:33.636Z,13.00
2016-09-29T05:45:08.647Z,12.99
2016-09-29T05:46:07.229Z,13.02
2016-09-29T05:47:07.790Z,13.03
2016-09-29T05:48:07.351Z,13.00
2016-09-29T05:49:07.858Z,12.99
2016-09-29T05:50:07.433Z,13.04
2016-09-29T05:51:08.121Z,13.14
2016-09-29T05:52:07.634Z,13.21
2016-09-29T05:53:07.131Z,13.28
2016-09-29T05:54:07.653Z,13.23
2016-09-29T05:55:07.113Z,13.24
2016-09-29T05:56:07.687Z,13.15
2016-09-29T05:57:07.255Z,13.18
2016-09-29T05:58:07.810Z,13.11
2016-09-29T05:59:07.379Z,13.11
2016-09-29T06:00:07.894Z,13.09
2016-09-29T06:01:07.768Z,13.09
2016-09-29T06:02:07.240Z,13.07
2016-09-29T06:03:07.908Z,13.13
2016-09-29T06:04:07.477Z,13.12
2016-09-29T06:05:08.029Z,13.12
2016-09-29T06:06:07.692Z,13.16
2016-09-29T06:07:07.161Z,13.24
2016-09-29T06:08:07.743Z,13.23
2016-09-29T06:09:07.416Z,13.25
2016-09-29T06:10:07.913Z,13.22
2016-09-29T06:11:07.468Z,13.18
2016-09-29T06:12:08.008Z,13.21
2016-09-29T06:13:07.549Z,13.26
2016-09-29T06:14:08.117Z,13.30
2016-09-29T06:15:07.731Z,13.32
2016-09-29T06:16:07.207Z,13.32
2016-09-29T06:17:07.351Z,13.33
2016-09-29T06:18:07.979Z,13.31
2016-09-29T06:19:07.468Z,13.24
2016-09-29T06:20:08.038Z,13.26
2016-09-29T06:21:07.645Z,13.30
2016-09-29T06:22:07.201Z,13.35
2016-09-29T06:23:07.700Z,13.33
2016-09-29T06:24:07.152Z,13.39
2016-09-29T06:25:07.749Z,13.39
2016-09-29T06:26:07.352Z,13.37
2016-09-29T06:27:07.872Z,13.41
2016-09-29T06:28:07.489Z,13.36
2016-09-29T06:29:08.031Z,13.41
2016-09-29T06:30:07.576Z,13.49
2016-09-29T06:31:08.153Z,13.48
2016-09-29T06:32:07.673Z,13.49
2016-09-29T06:33:07.151Z,13.47
2016-09-29T06:34:07.622Z,13.58
2016-09-29T06:35:07.109Z,13.63
2016-09-29T06:36:07.581Z,13.57
2016-09-29T06:37:08.144Z,13.63
2016-09-29T06:38:07.769Z,13.68
2016-09-29T06:39:07.293Z,13.71
2016-09-29T06:40:07.900Z,13.73
2016-09-29T06:41:07.395Z,13.70
2016-09-29T06:42:07.990Z,13.71
2016-09-29T06:43:07.564Z,13.81
2016-09-29T06:44:08.118Z,13.86
2016-09-29T06:45:07.722Z,13.90
2016-09-29T06:46:07.290Z,13.89
2016-09-29T06:47:07.821Z,13.85
2016-09-29T06:48:07.427Z,13.86
2016-09-29T06:49:07.953Z,13.93
2016-09-29T06:50:07.510Z,13.93
2016-09-29T06:51:08.018Z,13.91
2016-09-29T06:52:07.515Z,13.94
2016-09-29T06:53:08.024Z,14.02
2016-09-29T06:54:07.530Z,14.02
2016-09-29T06:55:08.141Z,14.04
2016-09-29T06:56:07.598Z,14.08
2016-09-29T06:57:07.132Z,14.09
2016-09-29T06:58:07.649Z,14.12
2016-09-29T06:59:07.110Z,14.15
2016-09-29T07:00:07.732Z,14.16
2016-09-29T07:01:07.255Z,14.24
2016-09-29T07:02:07.833Z,14.23
2016-09-29T07:03:07.353Z,14.31
2016-09-29T07:04:07.894Z,14.34
2016-09-29T07:05:07.362Z,14.37
2016-09-29T07:06:07.927Z,14.42
2016-09-29T07:07:07.422Z,14.58
2016-09-29T07:08:07.990Z,14.70
2016-09-29T07:09:07.575Z,14.71
2016-09-29T07:10:08.125Z,14.71
2016-09-29T07:11:07.710Z,14.75
2016-09-29T07:12:07.303Z,14.78
2016-09-29T07:13:07.928Z,14.72
2016-09-29T07:14:14.596Z,14.78
2016-09-29T07:15:07.134Z,14.80
2016-09-29T07:16:07.725Z,14.88
2016-09-29T07:17:07.353Z,14.94
2016-09-29T07:18:07.944Z,15.08
2016-09-29T07:19:07.520Z,15.14
2016-09-29T07:20:08.070Z,15.25
2016-09-29T07:21:07.689Z,15.40
2016-09-29T07:22:07.271Z,15.47
2016-09-29T07:23:07.842Z,15.47
2016-09-29T07:24:07.474Z,15.49
2016-09-29T07:25:08.110Z,15.36
2016-09-29T07:26:07.725Z,15.31
2016-09-29T07:27:07.310Z,15.27
2016-09-29T07:28:07.862Z,15.48
2016-09-29T07:29:07.386Z,15.66
2016-09-29T07:30:07.963Z,15.59
2016-09-29T07:31:07.485Z,15.62
2016-09-29T07:32:08.124Z,15.63
2016-09-29T07:33:07.703Z,15.71
2016-09-29T07:34:07.271Z,15.82
2016-09-29T07:35:07.845Z,15.80
2016-09-29T07:36:07.474Z,15.73
2016-09-29T07:37:08.121Z,15.90
2016-09-29T07:38:07.654Z,15.90
2016-09-29T07:39:07.295Z,15.91
2016-09-29T07:40:07.881Z,15.89
2016-09-29T07:41:07.528Z,15.94
2016-09-29T07:42:08.067Z,15.92
2016-09-29T07:43:07.543Z,15.90
2016-09-29T07:44:08.069Z,15.91
2016-09-29T07:45:07.535Z,15.90
2016-09-29T07:46:08.082Z,15.94
2016-09-29T07:47:07.679Z,16.02
2016-09-29T07:48:07.268Z,16.14
2016-09-29T07:49:07.801Z,16.21
2016-09-29T07:50:07.303Z,16.17
2016-09-29T07:51:07.909Z,16.13
2016-09-29T07:52:07.601Z,16.01
2016-09-29T07:53:07.186Z,16.22
2016-09-29T07:54:07.696Z,16.30
2016-09-29T07:55:07.205Z,16.38
2016-09-29T07:56:07.639Z,16.43
2016-09-29T07:57:07.135Z,16.36
2016-09-29T07:58:07.676Z,16.39
2016-09-29T07:59:07.226Z,16.45
2016-09-29T08:00:07.733Z,16.51
2016-09-29T08:01:07.336Z,16.50
2016-09-29T08:02:07.924Z,16.66
2016-09-29T08:03:07.505Z,16.67
2016-09-29T08:04:08.089Z,16.69
2016-09-29T08:05:07.796Z,16.64
2016-09-29T08:06:07.286Z,16.66
2016-09-29T08:07:07.929Z,16.69
2016-09-29T08:08:07.425Z,16.69
2016-09-29T08:09:08.128Z,16.74
2016-09-29T08:10:07.656Z,16.77
2016-09-29T08:11:07.075Z,16.80
2016-09-29T08:12:08.117Z,16.81
2016-09-29T08:13:07.698Z,16.84
2016-09-29T08:14:07.181Z,16.97
2016-09-29T08:15:07.685Z,16.95
2016-09-29T08:16:07.222Z,16.86
2016-09-29T08:17:07.845Z,16.86
2016-09-29T08:18:07.412Z,16.88
2016-09-29T08:19:07.904Z,16.96
2016-09-29T08:20:07.493Z,16.93
2016-09-29T08:21:08.083Z,16.97
2016-09-29T08:22:07.717Z,16.95
2016-09-29T08:23:07.249Z,17.00
2016-09-29T08:24:07.853Z,17.11
2016-09-29T08:25:07.305Z,17.32
2016-09-29T08:26:07.909Z,17.38
2016-09-29T08:27:07.464Z,17.34
2016-09-29T08:28:08.065Z,17.31
2016-09-29T08:29:07.561Z,17.33
2016-09-29T08:30:08.138Z,17.45
2016-09-29T08:31:07.636Z,17.42
2016-09-29T08:32:07.130Z,17.37
2016-09-29T08:33:07.726Z,17.36
2016-09-29T08:34:07.254Z,17.39
2016-09-29T08:35:07.776Z,17.34
2016-09-29T08:36:07.315Z,17.45
2016-09-29T08:37:07.785Z,17.47
2016-09-29T08:38:07.361Z,17.52
2016-09-29T08:39:07.822Z,17.59
2016-09-29T08:40:07.338Z,17.57
2016-09-29T08:41:07.847Z,17.62
2016-09-29T08:42:07.327Z,17.61
2016-09-29T08:43:07.878Z,17.61
2016-09-29T08:44:07.357Z,17.71
2016-09-29T08:45:07.877Z,17.86
2016-09-29T08:46:07.485Z,17.94
2016-09-29T08:47:08.107Z,17.88
2016-09-29T08:48:07.602Z,17.91
2016-09-29T08:49:07.198Z,17.91
2016-09-29T08:50:07.737Z,17.90
2016-09-29T08:51:07.334Z,17.88
2016-09-29T08:52:07.916Z,17.94
2016-09-29T08:53:07.449Z,17.88
2016-09-29T08:54:07.969Z,17.94
2016-09-29T08:55:07.508Z,18.01
2016-09-29T08:56:08.061Z,18.05
2016-09-29T08:57:07.649Z,18.12
2016-09-29T08:58:07.131Z,18.14
2016-09-29T08:59:07.656Z,18.04
2016-09-29T09:00:07.158Z,18.00
2016-09-29T09:01:07.717Z,18.06
2016-09-29T09:02:07.277Z,18.06
2016-09-29T09:03:07.758Z,18.07
2016-09-29T09:04:07.274Z,18.10
2016-09-29T09:05:07.822Z,18.14
2016-09-29T09:06:07.407Z,18.19
2016-09-29T09:07:08.003Z,18.19
2016-09-29T09:08:07.563Z,18.23
2016-09-29T09:09:07.078Z,18.22
2016-09-29T09:10:07.601Z,18.31
2016-09-29T09:11:07.194Z,18.43
2016-09-29T09:12:07.824Z,18.34
2016-09-29T09:13:07.524Z,18.50
2016-09-29T09:14:08.094Z,18.47
2016-09-29T09:15:07.636Z,18.36
2016-09-29T09:16:07.187Z,18.36
2016-09-29T09:17:07.813Z,18.50
2016-09-29T09:18:07.410Z,18.44
2016-09-29T09:19:07.983Z,18.54
2016-09-29T09:20:07.475Z,18.57
2016-09-29T09:21:08.038Z,18.66
2016-09-29T09:22:07.515Z,18.60
2016-09-29T09:23:08.134Z,18.55
2016-09-29T09:24:07.715Z,18.55
2016-09-29T09:25:07.334Z,18.59
2016-09-29T09:26:07.915Z,18.64
2016-09-29T09:27:07.590Z,18.74
2016-09-29T09:28:07.167Z,18.73
2016-09-29T09:29:07.722Z,18.73
2016-09-29T09:30:07.313Z,18.76
2016-09-29T09:31:07.752Z,18.76
2016-09-29T09:32:07.936Z,18.73
2016-09-29T09:33:07.554Z,18.66
2016-09-29T09:34:08.122Z,18.65
2016-09-29T09:35:07.614Z,18.80
2016-09-29T09:36:07.103Z,18.86
2016-09-29T09:37:07.686Z,18.89
2016-09-29T09:38:07.263Z,18.77
2016-09-29T09:39:07.876Z,18.77
2016-09-29T09:40:07.491Z,18.81
2016-09-29T09:41:08.113Z,18.90
2016-09-29T09:42:07.654Z,18.99
2016-09-29T09:43:07.135Z,19.18
2016-09-29T09:44:07.675Z,19.16
2016-09-29T09:45:07.149Z,19.18
2016-09-29T09:46:07.778Z,19.28
2016-09-29T09:47:07.909Z,19.22
2016-09-29T09:48:07.494Z,19.21
2016-09-29T09:49:08.065Z,19.31
2016-09-29T09:50:07.605Z,19.23
2016-09-29T09:51:07.075Z,19.21
2016-09-29T09:52:07.656Z,19.32
2016-09-29T09:53:07.179Z,19.42
2016-09-29T09:54:07.776Z,19.53
2016-09-29T09:55:07.323Z,19.41
2016-09-29T09:56:07.927Z,19.42
2016-09-29T09:57:07.558Z,19.36
2016-09-29T09:58:08.166Z,19.41
2016-09-29T09:59:07.759Z,19.45
2016-09-29T10:00:07.267Z,19.50
2016-09-29T10:01:07.774Z,19.53
2016-09-29T10:02:07.309Z,19.69
2016-09-29T10:03:07.840Z,19.63
2016-09-29T10:04:07.363Z,19.87
2016-09-29T10:05:07.957Z,19.80
2016-09-29T10:06:07.496Z,19.69
2016-09-29T10:07:08.112Z,19.66
2016-09-29T10:08:07.653Z,19.69
2016-09-29T10:09:07.172Z,19.49
2016-09-29T10:10:07.763Z,19.45
2016-09-29T10:11:07.359Z,19.54
2016-09-29T10:12:07.984Z,19.71
2016-09-29T10:13:07.727Z,19.80
2016-09-29T10:14:07.859Z,19.88
2016-09-29T10:15:07.356Z,20.01
2016-09-29T10:16:07.916Z,19.86
2016-09-29T10:17:07.647Z,19.85
2016-09-29T10:18:07.199Z,19.91
2016-09-29T10:19:07.789Z,20.15
2016-09-29T10:20:07.315Z,19.98
2016-09-29T10:21:07.868Z,19.91
2016-09-29T10:22:07.427Z,20.08
2016-09-29T10:23:08.024Z,19.92
2016-09-29T10:24:07.630Z,19.95
2016-09-29T10:25:07.184Z,19.90
2016-09-29T10:26:07.771Z,20.23
2016-09-29T10:27:07.407Z,20.27
2016-09-29T10:28:07.927Z,20.26
2016-09-29T10:29:07.583Z,20.23
2016-09-29T10:30:08.160Z,20.12
2016-09-29T10:31:07.674Z,20.08
2016-09-29T10:32:07.164Z,20.27
2016-09-29T10:33:07.791Z,20.06
2016-09-29T10:34:07.289Z,20.15
2016-09-29T10:35:07.498Z,20.33
2016-09-29T10:36:08.170Z,20.24
2016-09-29T10:37:07.811Z,20.15
2016-09-29T10:38:07.286Z,20.07
2016-09-29T10:39:07.928Z,20.12
2016-09-29T10:40:07.458Z,20.28
2016-09-29T10:41:07.965Z,20.13
2016-09-29T10:42:07.461Z,20.13
2016-09-29T10:43:07.965Z,20.22
2016-09-29T10:44:07.519Z,20.50
2016-09-29T10:45:08.124Z,20.38
2016-09-29T10:46:07.655Z,20.27
2016-09-29T10:47:07.215Z,20.21
2016-09-29T10:48:07.740Z,20.48
2016-09-29T10:49:07.339Z,20.64
2016-09-29T10:50:07.874Z,20.59
2016-09-29T10:51:07.500Z,20.54
2016-09-29T10:52:08.065Z,20.60
2016-09-29T10:53:07.683Z,20.55
2016-09-29T10:54:07.220Z,20.55
2016-09-29T10:55:07.776Z,20.57
2016-09-29T10:56:07.343Z,20.43
2016-09-29T10:57:07.975Z,20.36
2016-09-29T10:58:07.589Z,20.48
2016-09-29T10:59:07.273Z,20.35
2016-09-29T11:00:07.822Z,20.35
2016-09-29T11:01:07.387Z,20.58
2016-09-29T11:02:07.958Z,20.54
2016-09-29T11:03:07.483Z,20.56
2016-09-29T11:04:08.121Z,20.57
2016-09-29T11:05:07.717Z,20.60
2016-09-29T11:06:07.235Z,20.60
2016-09-29T11:07:07.767Z,20.73
2016-09-29T11:08:07.337Z,20.80
2016-09-29T11:09:07.920Z,20.87
2016-09-29T11:10:07.526Z,20.85
2016-09-29T11:11:08.082Z,20.77
2016-09-29T11:12:07.671Z,20.78
2016-09-29T11:13:07.341Z,20.76
2016-09-29T11:14:07.901Z,20.74
2016-09-29T11:15:07.556Z,20.67
2016-09-29T11:16:08.166Z,20.71
2016-09-29T11:17:07.962Z,20.98
2016-09-29T11:18:07.691Z,20.95
2016-09-29T11:19:07.310Z,20.92
2016-09-29T11:20:07.957Z,20.84
2016-09-29T11:21:07.534Z,20.80
2016-09-29T11:22:08.077Z,20.77
2016-09-29T11:23:07.622Z,20.84
2016-09-29T11:24:07.074Z,21.16
2016-09-29T11:25:07.674Z,21.15
2016-09-29T11:26:07.244Z,21.23
2016-09-29T11:27:07.870Z,21.15
2016-09-29T11:28:07.396Z,21.07
2016-09-29T11:29:08.014Z,21.24
2016-09-29T11:30:07.578Z,21.03
2016-09-29T11:31:07.259Z,21.12
2016-09-29T11:32:07.847Z,21.17
2016-09-29T11:33:07.414Z,21.18
2016-09-29T11:34:07.932Z,21.09
2016-09-29T11:35:07.544Z,21.12
2016-09-29T11:36:08.177Z,21.21
2016-09-29T11:37:07.683Z,21.16
2016-09-29T11:38:07.225Z,21.31
2016-09-29T11:39:07.784Z,21.49
2016-09-29T11:40:07.306Z,21.60
2016-09-29T11:41:07.870Z,21.69
2016-09-29T11:42:07.493Z,21.65
2016-09-29T11:43:08.328Z,21.71
2016-09-29T11:44:07.903Z,21.57
2016-09-29T11:45:07.535Z,21.63
2016-09-29T11:46:08.125Z,21.61
2016-09-29T11:47:07.605Z,21.53
2016-09-29T11:48:07.263Z,21.47
2016-09-29T11:49:07.723Z,21.70
2016-09-29T11:50:07.264Z,21.59
2016-09-29T11:51:07.749Z,21.48
2016-09-29T11:52:07.233Z,21.50
2016-09-29T11:53:07.824Z,21.37
2016-09-29T11:54:07.376Z,21.36
2016-09-29T11:55:08.020Z,21.41
2016-09-29T11:56:07.522Z,21.51
2016-09-29T11:57:08.073Z,21.63
2016-09-29T11:58:07.673Z,21.62
2016-09-29T11:59:07.167Z,21.52
2016-09-29T12:00:07.745Z,21.57
2016-09-29T12:01:07.345Z,21.65
2016-09-29T12:02:07.893Z,22.00
2016-09-29T12:03:07.360Z,21.81
2016-09-29T12:04:07.914Z,21.58
2016-09-29T12:05:07.508Z,21.58
2016-09-29T12:06:08.064Z,21.57
2016-09-29T12:07:07.707Z,21.68
2016-09-29T12:08:07.177Z,21.77
2016-09-29T12:09:07.734Z,21.81
2016-09-29T12:10:07.240Z,21.79
2016-09-29T12:11:07.798Z,21.83
2016-09-29T12:12:07.362Z,21.80
2016-09-29T12:13:07.893Z,21.75
2016-09-29T12:14:07.464Z,21.82
2016-09-29T12:15:08.029Z,21.86
2016-09-29T12:16:07.586Z,21.81
2016-09-29T12:17:07.172Z,21.84
2016-09-29T12:18:07.723Z,21.77
2016-09-29T12:19:07.215Z,21.95
2016-09-29T12:20:07.752Z,21.89
2016-09-29T12:21:07.263Z,21.96
2016-09-29T12:22:07.843Z,21.93
2016-09-29T12:23:07.313Z,21.98
2016-09-29T12:24:07.959Z,22.09
2016-09-29T12:25:07.573Z,21.96
2016-09-29T12:26:08.153Z,21.83
2016-09-29T12:27:07.720Z,21.71
2016-09-29T12:28:07.266Z,21.60
2016-09-29T12:29:07.779Z,21.69
2016-09-29T12:30:07.343Z,21.90
2016-09-29T12:31:07.928Z,21.87
2016-09-29T12:32:07.504Z,21.89
2016-09-29T12:33:08.062Z,21.94
2016-09-29T12:34:07.681Z,22.01
2016-09-29T12:35:07.215Z,21.87
2016-09-29T12:36:08.155Z,21.90
2016-09-29T12:37:07.789Z,22.15
2016-09-29T12:38:07.376Z,22.19
2016-09-29T12:39:07.892Z,22.03
2016-09-29T12:40:07.488Z,21.90
2016-09-29T12:41:08.064Z,22.01
2016-09-29T12:42:07.689Z,22.31
2016-09-29T12:43:07.273Z,22.19
2016-09-29T12:44:07.795Z,22.19
2016-09-29T12:45:07.422Z,22.07
2016-09-29T12:46:08.048Z,22.20
2016-09-29T12:47:07.606Z,22.31
2016-09-29T12:48:07.101Z,22.41
2016-09-29T12:49:07.689Z,22.30
2016-09-29T12:50:07.226Z,22.10
2016-09-29T12:51:07.783Z,22.41
2016-09-29T12:52:07.337Z,22.42